Time;durP1;ratioP1;P1;durP2;ratioP2;P2;SDS_P1;SDS_P2;PMS_P1;PMS_P2;Temp;Humidity;BMP_temperature;BMP_pressure;BME280_temperature;BME280_humidity;BME280_pressure;Samples;Min_cycle;Max_cycle;Signal;HPM_P1;HPM_P2
2021/09/23 00:00:37;;;;;;;;;;;;;;;7.35;47.20;96284.78;4967912;28;19990;-61
2021/09/23 00:03:15;;;;;;;;;;;;;;;7.37;47.10;96282.81;4966276;28;20498;-61
2021/09/23 00:05:40;;;;;;;;;;;;;;;7.38;48.27;96279.22;4956028;28;20240;-61
2021/09/23 00:08:06;;;;;;;;;;;;;;;7.34;48.87;96280.47;4967711;28;20065;-61
2021/09/23 00:10:32;;;;;;;;;;;;;;;7.33;48.43;96276.13;4968679;28;19921;-61
2021/09/23 00:12:57;;;;;;;;;;;;;;;7.30;47.71;96279.06;4967557;28;19922;-61
2021/09/23 00:15:23;;;;;;;;;;;;;;;7.23;47.42;96282.28;4963070;28;20385;-61
2021/09/23 00:17:49;;;;;;;;;;;;;;;7.26;47.03;96276.72;4971791;28;19983;-61
2021/09/23 00:20:15;;;;;;;;;;;;;;;7.25;47.53;96275.03;4971187;28;20037;-61
2021/09/23 00:22:40;;;;;;;;;;;;;;;7.25;46.58;96268.91;4971622;28;20017;-62
2021/09/23 00:25:06;;;;;;;;;;;;;;;7.26;46.68;96270.56;4970917;28;20018;-61
2021/09/23 00:27:32;;;;;;;;;;;;;;;7.18;46.68;96278.38;4971111;28;19924;-61
2021/09/23 00:29:57;;;;;;;;;;;;;;;7.13;46.22;96274.34;4971458;28;20366;-61
2021/09/23 00:32:22;;;;;;;;;;;;;;;7.09;46.42;96259.72;4970934;28;20046;-61
2021/09/23 00:34:47;;;;;;;;;;;;;;;7.12;46.02;96263.91;4971458;28;20126;-61
2021/09/23 00:37:13;;;;;;;;;;;;;;;7.11;45.80;96265.69;4971041;28;19977;-61
2021/09/23 00:39:38;;;;;;;;;;;;;;;7.00;46.78;96252.59;4970751;28;20033;-61
2021/09/23 00:42:04;;;;;;;;;;;;;;;6.99;46.67;96256.22;4971656;28;20428;-61
2021/09/23 00:44:30;;;;;;;;;;;;;;;6.94;46.05;96251.34;4967001;28;20010;-61
2021/09/23 00:46:55;;;;;;;;;;;;;;;6.93;46.10;96247.03;4965722;28;20178;-61
2021/09/23 00:49:21;;;;;;;;;;;;;;;6.90;46.14;96249.94;4971104;28;19963;-61
2021/09/23 00:51:46;;;;;;;;;;;;;;;6.89;46.36;96241.19;4970698;28;19994;-61
2021/09/23 00:54:11;;;;;;;;;;;;;;;6.88;46.72;96246.63;4967262;28;19967;-61
2021/09/23 00:56:36;;;;;;;;;;;;;;;6.86;47.23;96249.41;4970155;28;19998;-61
2021/09/23 00:59:02;;;;;;;;;;;;;;;6.85;47.06;96236.31;4970526;28;19986;-61
2021/09/23 01:01:27;;;;;;;;;;;;;;;6.82;46.99;96226.84;4969386;28;20045;-61
2021/09/23 01:03:53;;;;;;;;;;;;;;;6.79;47.11;96223.63;4970185;28;19954;-61
2021/09/23 01:06:18;;;;;;;;;;;;;;;6.80;48.20;96217.38;4970668;28;19928;-61
2021/09/23 01:08:56;;;;;;;;;;;;;;;6.79;47.96;96210.38;4970749;28;19985;-61
2021/09/23 01:11:23;;;;;;;;;;;;;;;6.82;47.72;96207.47;4970215;28;20339;-61
2021/09/23 01:13:48;;;;;;;;;;;;;;;6.81;48.26;96195.22;4969548;28;19918;-61
2021/09/23 01:16:13;;;;;;;;;;;;;;;6.78;47.71;96196.34;4970029;28;20356;-61
2021/09/23 01:18:40;;;;;;;;;;;;;;;6.83;47.40;96195.94;4970960;28;19918;-61
2021/09/23 01:21:05;;;;;;;;;;;;;;;6.76;47.51;96190.34;4969675;28;19953;-61
2021/09/23 01:23:30;;;;;;;;;;;;;;;6.82;46.94;96195.06;4969218;28;19973;-62
2021/09/23 01:25:56;;;;;;;;;;;;;;;6.76;47.36;96187.69;4969432;28;20234;-61
2021/09/23 01:28:21;;;;;;;;;;;;;;;6.67;48.07;96191.19;4970033;28;19956;-61
2021/09/23 01:30:46;;;;;;;;;;;;;;;6.57;50.07;96192.03;4969804;28;20296;-61
2021/09/23 01:33:11;;;;;;;;;;;;;;;6.60;49.07;96183.78;4970321;28;19957;-61
2021/09/23 01:35:36;;;;;;;;;;;;;;;6.66;48.18;96171.00;4969912;28;19918;-61
2021/09/23 01:38:02;;;;;;;;;;;;;;;6.70;48.87;96175.84;4970199;28;19918;-61
2021/09/23 01:40:27;;;;;;;;;;;;;;;6.64;48.85;96177.25;4969702;28;20390;-61
2021/09/23 01:42:52;;;;;;;;;;;;;;;6.70;48.45;96173.19;4969507;28;19957;-61
2021/09/23 01:45:17;;;;;;;;;;;;;;;6.76;48.98;96175.31;4964792;28;19914;-61
2021/09/23 01:47:43;;;;;;;;;;;;;;;6.74;48.79;96177.22;4969779;28;19925;-61
2021/09/23 01:50:08;;;;;;;;;;;;;;;6.74;48.66;96174.59;4969473;28;20418;-61
2021/09/23 01:52:33;;;;;;;;;;;;;;;6.77;47.83;96170.84;4969422;28;19918;-62
2021/09/23 01:54:59;;;;;;;;;;;;;;;6.74;47.07;96166.66;4969885;28;19920;-61
2021/09/23 01:57:24;;;;;;;;;;;;;;;6.74;47.11;96161.34;4962374;28;20423;-61
2021/09/23 01:59:49;;;;;;;;;;;;;;;6.73;47.08;96156.19;4966980;28;20284;-61
2021/09/23 02:02:14;;;;;;;;;;;;;;;6.67;46.37;96146.19;4970118;28;19937;-61
2021/09/23 02:04:40;;;;;;;;;;;;;;;6.62;46.55;96147.44;4969213;28;19933;-61
2021/09/23 02:07:05;;;;;;;;;;;;;;;6.65;46.84;96148.97;4969301;28;20017;-61
2021/09/23 02:09:32;;;;;;;;;;;;;;;6.43;48.03;96158.00;4969472;28;20046;-61
2021/09/23 02:11:59;;;;;;;;;;;;;;;5.87;50.13;96153.19;4969137;28;19949;-61
2021/09/23 02:14:24;;;;;;;;;;;;;;;6.12;48.83;96145.69;4967777;28;19945;-61
2021/09/23 02:16:49;;;;;;;;;;;;;;;6.24;48.95;96149.91;4969009;28;19922;-61
2021/09/23 02:19:14;;;;;;;;;;;;;;;6.36;47.83;96134.75;4968714;28;20282;-61
2021/09/23 02:21:40;;;;;;;;;;;;;;;6.40;47.87;96137.97;4969326;28;19918;-61
2021/09/23 02:24:05;;;;;;;;;;;;;;;6.40;48.35;96132.66;4968862;28;20005;-61
2021/09/23 02:26:30;;;;;;;;;;;;;;;6.40;47.67;96124.75;4969358;28;19970;-61
2021/09/23 02:28:55;;;;;;;;;;;;;;;6.34;47.64;96120.84;4968838;28;19991;-61
2021/09/23 02:31:21;;;;;;;;;;;;;;;6.40;47.78;96122.09;4968801;28;19987;-61
2021/09/23 02:33:46;;;;;;;;;;;;;;;6.39;48.65;96123.03;4968677;28;19978;-61
2021/09/23 02:36:11;;;;;;;;;;;;;;;6.39;49.11;96120.41;4968783;28;20089;-61
2021/09/23 02:38:36;;;;;;;;;;;;;;;6.47;48.21;96122.38;4969277;28;19978;-61
2021/09/23 02:41:02;;;;;;;;;;;;;;;6.50;48.84;96111.53;4968697;28;20339;-61
2021/09/23 02:43:27;;;;;;;;;;;;;;;6.55;48.67;96109.31;4968645;28;20022;-61
2021/09/23 02:45:52;;;;;;;;;;;;;;;6.52;48.64;96108.75;4963206;28;19970;-61
2021/09/23 02:48:17;;;;;;;;;;;;;;;6.32;49.88;96112.19;4968445;28;19990;-61
2021/09/23 02:50:43;;;;;;;;;;;;;;;6.32;50.25;96101.63;4959907;28;20014;-61
2021/09/23 02:53:08;;;;;;;;;;;;;;;6.36;48.80;96094.25;4966716;28;19994;-61
2021/09/23 02:55:33;;;;;;;;;;;;;;;6.44;48.18;96096.19;4968517;28;19990;-61
2021/09/23 02:57:58;;;;;;;;;;;;;;;6.45;47.72;96082.81;4959393;28;20091;-62
2021/09/23 03:00:24;;;;;;;;;;;;;;;6.43;47.42;96076.81;4968331;28;20017;-61
2021/09/23 03:02:49;;;;;;;;;;;;;;;6.40;47.09;96076.28;4968509;28;20004;-61
2021/09/23 03:05:14;;;;;;;;;;;;;;;6.37;46.89;96066.81;4968669;28;20001;-61
2021/09/23 03:07:39;;;;;;;;;;;;;;;6.29;47.06;96071.97;4968340;28;20411;-61
2021/09/23 03:10:05;;;;;;;;;;;;;;;6.24;47.13;96069.75;4968645;28;19996;-60
2021/09/23 03:12:31;;;;;;;;;;;;;;;6.32;46.86;96074.34;4967903;28;19994;-60
2021/09/23 03:14:56;;;;;;;;;;;;;;;6.21;47.80;96076.16;4966813;28;20373;-60
2021/09/23 03:17:21;;;;;;;;;;;;;;;6.20;47.87;96078.94;4968543;28;20001;-60
2021/09/23 03:19:47;;;;;;;;;;;;;;;6.22;48.15;96072.53;4968305;28;19990;-60
2021/09/23 03:22:16;;;;;;;;;;;;;;;6.23;47.84;96068.91;4967220;28;19977;-60
2021/09/23 03:24:41;;;;;;;;;;;;;;;6.20;48.97;96057.78;4967978;28;19998;-60
2021/09/23 03:27:06;;;;;;;;;;;;;;;6.16;48.00;96056.38;4967870;28;20551;-60
2021/09/23 03:29:32;;;;;;;;;;;;;;;6.15;48.40;96054.72;4967326;28;20351;-60
2021/09/23 03:31:57;;;;;;;;;;;;;;;6.14;48.55;96053.88;4968029;28;20044;-60
2021/09/23 03:34:22;;;;;;;;;;;;;;;6.19;48.55;96040.25;4967195;28;19966;-61
2021/09/23 03:36:47;;;;;;;;;;;;;;;6.19;47.91;96040.25;4967818;28;19990;-61
2021/09/23 03:39:13;;;;;;;;;;;;;;;6.14;49.47;96035.38;4968033;28;19986;-61
2021/09/23 03:41:38;;;;;;;;;;;;;;;6.09;50.04;96034.97;4968719;28;19970;-61
2021/09/23 03:44:04;;;;;;;;;;;;;;;6.15;49.90;96034.41;4967777;28;20025;-61
2021/09/23 03:46:29;;;;;;;;;;;;;;;6.19;49.74;96027.84;4966637;28;19981;-61
2021/09/23 03:48:54;;;;;;;;;;;;;;;6.19;49.58;96030.50;4971867;28;20077;-61
2021/09/23 03:51:19;;;;;;;;;;;;;;;6.28;49.04;96034.13;4958677;28;20081;-61
2021/09/23 03:53:45;;;;;;;;;;;;;;;6.26;49.38;96036.09;4972651;28;19971;-61
2021/09/23 03:56:12;;;;;;;;;;;;;;;6.32;49.64;96038.16;4971450;28;20030;-61
2021/09/23 03:58:41;;;;;;;;;;;;;;;6.31;49.38;96027.69;4962226;28;19971;-61
2021/09/23 04:01:06;;;;;;;;;;;;;;;6.34;49.29;96027.44;4971505;28;19993;-61
2021/09/23 04:03:31;;;;;;;;;;;;;;;6.38;48.86;96023.53;4971682;28;20001;-61
2021/09/23 04:05:57;;;;;;;;;;;;;;;6.40;49.32;96021.59;4972316;28;20320;-61
2021/09/23 04:08:22;;;;;;;;;;;;;;;6.35;48.94;96029.09;4971377;28;20156;-61
2021/09/23 04:10:47;;;;;;;;;;;;;;;6.38;49.84;96023.53;4971456;28;19970;-61
2021/09/23 04:13:13;;;;;;;;;;;;;;;6.43;49.54;96016.00;4971711;28;20255;-61
2021/09/23 04:15:38;;;;;;;;;;;;;;;6.54;49.62;96009.75;4971047;28;20129;-61
2021/09/23 04:18:04;;;;;;;;;;;;;;;6.59;50.84;96009.31;4972288;28;19910;-61
2021/09/23 04:20:29;;;;;;;;;;;;;;;6.73;50.76;96006.22;4971058;28;20498;-61
2021/09/23 04:22:55;;;;;;;;;;;;;;;6.99;51.59;96007.38;4971407;28;20110;-61
2021/09/23 04:25:21;;;;;;;;;;;;;;;7.34;52.08;96002.34;4971450;28;19970;-61
2021/09/23 04:27:46;;;;;;;;;;;;;;;7.20;52.81;95985.97;4971260;28;19918;-61
2021/09/23 04:30:11;;;;;;;;;;;;;;;7.63;51.25;95990.72;4971537;28;20005;-61
2021/09/23 04:32:36;;;;;;;;;;;;;;;7.76;51.29;95999.13;4970906;28;19976;-61
2021/09/23 04:35:02;;;;;;;;;;;;;;;7.89;50.43;96000.63;4970876;28;19914;-61
2021/09/23 04:37:27;;;;;;;;;;;;;;;8.00;50.22;95989.78;4971543;28;19914;-61
2021/09/23 04:39:52;;;;;;;;;;;;;;;8.05;50.31;95979.53;4970968;28;20387;-61
2021/09/23 04:42:18;;;;;;;;;;;;;;;8.19;49.82;95979.97;4971134;28;20507;-61
2021/09/23 04:44:43;;;;;;;;;;;;;;;8.28;48.79;95984.38;4965241;28;19929;-61
2021/09/23 04:47:08;;;;;;;;;;;;;;;8.28;49.01;95979.06;4970072;28;19917;-61
2021/09/23 04:49:33;;;;;;;;;;;;;;;8.25;49.50;95979.38;4971490;28;20119;-61
2021/09/23 04:51:59;;;;;;;;;;;;;;;8.24;49.22;95977.72;4970545;28;19918;-61
2021/09/23 04:54:24;;;;;;;;;;;;;;;8.30;48.63;95984.22;4970902;28;19957;-61
2021/09/23 04:56:49;;;;;;;;;;;;;;;8.17;47.79;95987.25;4966974;28;19924;-61
2021/09/23 04:59:15;;;;;;;;;;;;;;;8.16;48.08;95985.59;4963768;28;19914;-61
2021/09/23 05:01:40;;;;;;;;;;;;;;;8.01;46.95;95972.03;4970953;28;19925;-61
2021/09/23 05:04:05;;;;;;;;;;;;;;;7.96;47.93;95976.97;4970259;28;19994;-61
2021/09/23 05:06:31;;;;;;;;;;;;;;;7.91;47.59;95985.38;4971133;28;20065;-61
2021/09/23 05:08:56;;;;;;;;;;;;;;;7.85;48.09;95983.34;4970387;28;19990;-61
2021/09/23 05:11:23;;;;;;;;;;;;;;;7.79;49.00;95982.97;4970142;28;19983;-62
2021/09/23 05:13:49;;;;;;;;;;;;;;;7.81;48.57;95981.97;4969559;28;19998;-62
2021/09/23 05:16:14;;;;;;;;;;;;;;;7.65;48.38;95973.69;4970122;28;20696;-61
2021/09/23 05:18:39;;;;;;;;;;;;;;;7.70;47.85;95965.28;4970728;28;20010;-61
2021/09/23 05:21:04;;;;;;;;;;;;;;;7.66;47.23;95978.00;4970017;28;19990;-61
2021/09/23 05:23:30;;;;;;;;;;;;;;;7.56;48.13;95985.19;4969971;28;20378;-61
2021/09/23 05:25:55;;;;;;;;;;;;;;;7.45;48.46;95983.56;4970198;28;20005;-61
2021/09/23 05:28:21;;;;;;;;;;;;;;;7.51;48.23;95977.69;4968545;28;19990;-61
2021/09/23 05:30:47;;;;;;;;;;;;;;;7.57;48.52;95972.75;4969620;28;19970;-61
2021/09/23 05:33:12;;;;;;;;;;;;;;;7.57;48.11;95981.56;4964924;28;19970;-61
2021/09/23 05:35:38;;;;;;;;;;;;;;;7.60;47.97;95983.91;4957049;28;19994;-61
2021/09/23 05:38:03;;;;;;;;;;;;;;;7.57;48.44;95986.84;4966162;28;20452;-61
2021/09/23 05:40:28;;;;;;;;;;;;;;;7.57;48.10;95996.59;4954903;28;20531;-61
2021/09/23 05:42:54;;;;;;;;;;;;;;;7.65;48.75;95999.38;4963953;28;19970;-61
2021/09/23 05:45:19;;;;;;;;;;;;;;;7.62;49.53;95999.66;4960649;28;20614;-60
2021/09/23 05:47:46;;;;;;;;;;;;;;;7.70;48.20;96002.41;4963702;28;19997;-60
2021/09/23 05:50:12;;;;;;;;;;;;;;;7.96;49.06;96003.50;4964359;28;20219;-61
2021/09/23 05:52:37;;;;;;;;;;;;;;;8.04;49.14;96004.41;4962609;28;19945;-61
2021/09/23 05:55:03;;;;;;;;;;;;;;;8.16;49.36;96012.13;4963637;28;19924;-61
2021/09/23 05:57:37;;;;;;;;;;;;;;;8.23;49.23;96013.16;4957069;28;20375;-61
2021/09/23 06:00:03;;;;;;;;;;;;;;;8.43;48.19;96008.50;4964148;28;19944;-61
2021/09/23 06:02:29;;;;;;;;;;;;;;;8.57;47.91;96008.94;4965633;28;20045;-61
2021/09/23 06:04:54;;;;;;;;;;;;;;;8.70;47.93;96013.81;4964666;28;19926;-61
2021/09/23 06:07:19;;;;;;;;;;;;;;;8.73;47.49;96015.31;4965066;28;20254;-61
2021/09/23 06:09:44;;;;;;;;;;;;;;;8.78;47.47;96011.22;4964525;28;19925;-61
2021/09/23 06:12:09;;;;;;;;;;;;;;;9.04;47.10;96012.22;4964323;28;19918;-61
2021/09/23 06:14:35;;;;;;;;;;;;;;;9.05;46.71;96006.75;4963939;28;19926;-61
2021/09/23 06:17:00;;;;;;;;;;;;;;;9.12;46.72;96006.13;4964951;28;19922;-62
2021/09/23 06:19:25;;;;;;;;;;;;;;;9.22;47.13;96000.69;4964826;28;19941;-62
2021/09/23 06:21:51;;;;;;;;;;;;;;;9.50;46.50;96000.44;4965301;28;19922;-62
2021/09/23 06:24:16;;;;;;;;;;;;;;;9.20;47.37;96009.66;4964080;28;19926;-63
2021/09/23 06:26:41;;;;;;;;;;;;;;;9.54;46.53;96015.91;4964421;28;20340;-63
2021/09/23 06:29:06;;;;;;;;;;;;;;;9.61;46.01;96015.25;4964307;28;19960;-61
2021/09/23 06:31:33;;;;;;;;;;;;;;;9.67;46.61;96009.28;4964155;28;20013;-60
2021/09/23 06:33:59;;;;;;;;;;;;;;;9.77;45.84;96017.97;4964695;28;19925;-61
2021/09/23 06:36:24;;;;;;;;;;;;;;;9.98;45.62;96008.69;4964316;28;19918;-61
2021/09/23 06:38:49;;;;;;;;;;;;;;;10.36;45.27;96008.22;4964156;28;19941;-60
2021/09/23 06:41:14;;;;;;;;;;;;;;;10.55;44.78;95993.75;4964924;28;20298;-60
2021/09/23 06:43:40;;;;;;;;;;;;;;;10.50;44.95;95990.75;4964225;28;20184;-60
2021/09/23 06:46:05;;;;;;;;;;;;;;;10.54;44.91;95994.72;4955875;28;20361;-60
2021/09/23 06:48:30;;;;;;;;;;;;;;;10.65;44.83;95995.38;4963970;28;19926;-60
2021/09/23 06:50:56;;;;;;;;;;;;;;;10.77;45.22;95988.69;4963474;28;19930;-60
2021/09/23 06:53:21;;;;;;;;;;;;;;;10.71;45.72;95989.41;4964473;28;19924;-60
2021/09/23 06:55:46;;;;;;;;;;;;;;;10.84;45.53;95992.34;4964091;28;19979;-61
2021/09/23 06:58:11;;;;;;;;;;;;;;;10.86;44.88;95993.03;4951594;28;19922;-61
2021/09/23 07:00:37;;;;;;;;;;;;;;;10.81;44.89;95995.34;4964265;28;19918;-61
2021/09/23 07:03:02;;;;;;;;;;;;;;;10.87;45.36;95991.16;4964118;28;19933;-61
2021/09/23 07:05:27;;;;;;;;;;;;;;;11.05;44.84;95990.94;4964169;28;20033;-61
2021/09/23 07:07:53;;;;;;;;;;;;;;;11.21;44.84;95984.75;4964001;28;19948;-61
2021/09/23 07:10:18;;;;;;;;;;;;;;;11.36;44.30;95984.03;4964494;28;19918;-61
2021/09/23 07:12:43;;;;;;;;;;;;;;;11.41;44.94;95983.50;4962275;28;19925;-61
2021/09/23 07:15:08;;;;;;;;;;;;;;;11.54;44.27;95975.78;4953789;28;19926;-61
2021/09/23 07:17:35;;;;;;;;;;;;;;;11.45;45.21;95977.66;4964122;28;19921;-61
2021/09/23 07:20:00;;;;;;;;;;;;;;;11.85;43.49;95976.75;4963291;28;20572;-61
2021/09/23 07:22:26;;;;;;;;;;;;;;;11.55;43.77;95971.25;4964120;28;19918;-61
2021/09/23 07:24:51;;;;;;;;;;;;;;;11.65;43.67;95953.22;4963758;28;20004;-60
2021/09/23 07:27:16;;;;;;;;;;;;;;;11.59;44.46;95949.41;4962899;28;19918;-61
2021/09/23 07:29:41;;;;;;;;;;;;;;;12.12;43.66;95951.41;4964030;28;20367;-61
2021/09/23 07:32:07;;;;;;;;;;;;;;;12.09;43.50;95957.09;4963569;28;19957;-61
2021/09/23 07:34:32;;;;;;;;;;;;;;;12.37;43.00;95961.84;4964377;28;19914;-61
2021/09/23 07:36:58;;;;;;;;;;;;;;;12.25;43.07;95979.31;4963150;28;19917;-61
2021/09/23 07:39:23;;;;;;;;;;;;;;;11.56;45.24;95972.94;4963354;28;19941;-61
2021/09/23 07:41:48;;;;;;;;;;;;;;;11.36;45.00;95987.53;4963830;28;19918;-62
2021/09/23 07:44:14;;;;;;;;;;;;;;;11.07;44.95;95983.63;4961799;28;20316;-60
2021/09/23 07:46:39;;;;;;;;;;;;;;;10.55;47.08;95975.13;4957600;28;19918;-63
2021/09/23 07:49:05;;;;;;;;;;;;;;;10.73;46.81;95987.38;4963617;28;19918;-72
2021/09/23 07:51:30;;;;;;;;;;;;;;;10.54;46.62;95984.06;4963830;28;19925;-72
2021/09/23 07:53:55;;;;;;;;;;;;;;;10.86;45.39;95974.38;4962480;28;20009;-73
2021/09/23 07:56:21;;;;;;;;;;;;;;;11.38;44.29;95974.88;4934216;28;19922;-73
2021/09/23 07:58:46;;;;;;;;;;;;;;;10.97;44.75;95988.31;4950225;28;20322;-74
2021/09/23 08:01:11;;;;;;;;;;;;;;;10.44;48.18;95970.94;4963597;28;19918;-73
2021/09/23 08:03:36;;;;;;;;;;;;;;;10.64;45.80;95962.59;4963294;28;20024;-73
2021/09/23 08:06:02;;;;;;;;;;;;;;;10.87;46.09;95962.72;4964251;28;20286;-73
2021/09/23 08:08:27;;;;;;;;;;;;;;;11.51;44.39;95962.78;4961838;28;19992;-74
2021/09/23 08:10:52;;;;;;;;;;;;;;;11.79;43.72;95964.94;4962208;28;19918;-73
2021/09/23 08:13:18;;;;;;;;;;;;;;;11.41;43.66;95960.34;4939697;28;20044;-73
2021/09/23 08:15:43;;;;;;;;;;;;;;;12.23;42.68;95957.31;4958099;28;19926;-73
2021/09/23 08:18:08;;;;;;;;;;;;;;;12.61;40.99;95951.94;4963354;28;20008;-74
2021/09/23 08:20:34;;;;;;;;;;;;;;;12.63;41.10;95951.75;4962103;28;20111;-73
2021/09/23 08:22:59;;;;;;;;;;;;;;;12.17;43.12;95952.72;4963069;28;20123;-73
2021/09/23 08:25:24;;;;;;;;;;;;;;;12.63;40.59;95955.28;4962376;28;20414;-74
2021/09/23 08:27:49;;;;;;;;;;;;;;;11.99;43.68;95951.97;4963085;28;19918;-74
2021/09/23 08:30:15;;;;;;;;;;;;;;;12.54;42.68;95943.84;4962738;28;20604;-73
2021/09/23 08:32:40;;;;;;;;;;;;;;;12.69;40.05;95948.38;4965292;28;19918;-73
2021/09/23 08:35:06;;;;;;;;;;;;;;;12.33;41.09;95949.88;4965076;28;19945;-73
2021/09/23 08:37:35;;;;;;;;;;;;;;;12.04;42.53;95951.44;4967050;28;19968;-73
2021/09/23 08:40:00;;;;;;;;;;;;;;;12.01;41.87;95949.13;4938742;28;20021;-73
2021/09/23 08:42:26;;;;;;;;;;;;;;;11.68;42.03;95952.03;4959293;28;20405;-73
2021/09/23 08:44:53;;;;;;;;;;;;;;;12.14;42.80;95959.25;4968894;28;20446;-73
2021/09/23 08:47:18;;;;;;;;;;;;;;;11.77;42.20;95957.13;4965411;28;19918;-73
2021/09/23 08:49:43;;;;;;;;;;;;;;;12.12;41.59;95955.91;4965319;28;20010;-73
2021/09/23 08:52:09;;;;;;;;;;;;;;;12.33;40.53;95960.56;4964961;28;19918;-73
2021/09/23 08:54:34;;;;;;;;;;;;;;;11.93;42.66;95957.19;4965567;28;19918;-73
2021/09/23 08:57:01;;;;;;;;;;;;;;;11.82;42.04;95956.59;4964289;28;19964;-73
2021/09/23 08:59:27;;;;;;;;;;;;;;;11.76;42.87;95954.63;4966349;28;19925;-73
2021/09/23 09:01:53;;;;;;;;;;;;;;;12.10;41.10;95963.28;4967177;28;19926;-73
2021/09/23 09:04:18;;;;;;;;;;;;;;;12.44;42.31;95951.28;4964979;28;20356;-73
2021/09/23 09:06:53;;;;;;;;;;;;;;;12.58;40.04;95951.50;4965353;28;19917;-73
2021/09/23 09:09:19;;;;;;;;;;;;;;;12.80;40.57;95941.75;4966653;28;19918;-73
2021/09/23 09:11:46;;;;;;;;;;;;;;;13.18;38.91;95927.44;4935567;28;19918;-73
2021/09/23 09:14:20;;;;;;;;;;;;;;;12.80;39.90;95931.06;4963438;28;20013;-74
2021/09/23 09:16:45;;;;;;;;;;;;;;;13.00;39.14;95919.81;4964873;28;20291;-74
2021/09/23 09:19:11;;;;;;;;;;;;;;;12.64;39.82;95935.56;4948574;28;20346;-73
2021/09/23 09:21:36;;;;;;;;;;;;;;;12.71;39.67;95908.94;4966231;28;19918;-73
2021/09/23 09:24:02;;;;;;;;;;;;;;;12.89;39.47;95902.41;4964341;28;20000;-74
2021/09/23 09:26:41;;;;;;;;;;;;;;;13.08;39.18;95893.00;4964946;28;19980;-57
2021/09/23 09:29:06;;;;;;;;;;;;;;;12.92;39.15;95899.38;4965613;28;19917;-74
2021/09/23 09:31:32;;;;;;;;;;;;;;;13.12;38.72;95896.94;4965615;28;19922;-74
2021/09/23 09:33:59;;;;;;;;;;;;;;;12.92;39.87;95891.34;4948365;28;19913;-73
2021/09/23 09:36:26;;;;;;;;;;;;;;;13.55;38.43;95890.84;4964285;28;19918;-74
2021/09/23 09:38:52;;;;;;;;;;;;;;;13.88;37.16;95881.50;4965706;28;20189;-74
2021/09/23 09:41:21;;;;;;;;;;;;;;;13.99;37.14;95884.66;4946515;28;20252;-73
2021/09/23 09:43:48;;;;;;;;;;;;;;;13.57;38.29;95888.78;4963006;28;20261;-73
2021/09/23 09:46:27;;;;;;;;;;;;;;;13.98;36.70;95875.00;4960013;28;20414;-74
2021/09/23 09:48:53;;;;;;;;;;;;;;;13.31;37.43;95867.97;4964006;28;20466;-74
2021/09/23 09:51:22;;;;;;;;;;;;;;;12.86;37.21;95868.88;4936053;28;20013;-74
2021/09/23 09:54:00;;;;;;;;;;;;;;;13.15;37.70;95853.81;4961013;28;19918;-74
2021/09/23 09:56:25;;;;;;;;;;;;;;;12.96;38.15;95857.06;4960832;28;20354;-74
2021/09/23 09:59:06;;;;;;;;;;;;;;;12.83;37.88;95839.84;4962777;28;19983;-74
2021/09/23 10:01:31;;;;;;;;;;;;;;;12.42;38.46;95841.97;4965388;28;20326;-74
2021/09/23 10:03:57;;;;;;;;;;;;;;;13.25;37.53;95823.25;4964860;28;19922;-74
2021/09/23 10:06:22;;;;;;;;;;;;;;;13.22;37.55;95839.69;4964091;28;19918;-73
2021/09/23 10:08:47;;;;;;;;;;;;;;;13.66;36.44;95825.31;4947360;28;19922;-74
2021/09/23 10:11:13;;;;;;;;;;;;;;;13.12;37.94;95830.13;4965756;28;19929;-74
2021/09/23 10:13:38;;;;;;;;;;;;;;;13.26;37.98;95827.59;4967330;28;19968;-73
2021/09/23 10:16:03;;;;;;;;;;;;;;;13.33;36.26;95825.00;4951154;28;19925;-74
2021/09/23 10:18:28;;;;;;;;;;;;;;;13.91;36.28;95827.56;4968059;28;20347;-73
2021/09/23 10:20:54;;;;;;;;;;;;;;;13.77;36.08;95829.28;4948205;28;19954;-73
2021/09/23 10:23:19;;;;;;;;;;;;;;;14.45;34.86;95821.78;4967662;28;19918;-72
2021/09/23 10:25:44;;;;;;;;;;;;;;;14.90;35.71;95828.59;4969504;28;19921;-74
2021/09/23 10:28:10;;;;;;;;;;;;;;;14.66;35.46;95828.88;4967283;28;19918;-75
2021/09/23 10:30:40;;;;;;;;;;;;;;;14.88;35.73;95831.47;4966835;28;20016;-75
2021/09/23 10:33:05;;;;;;;;;;;;;;;15.17;34.54;95826.81;4959636;28;19981;-75
2021/09/23 10:35:31;;;;;;;;;;;;;;;14.19;35.70;95828.59;4966931;28;19925;-75
2021/09/23 10:38:06;;;;;;;;;;;;;;;14.43;35.87;95813.94;4967353;28;19914;-75
2021/09/23 10:40:32;;;;;;;;;;;;;;;14.55;35.69;95816.06;4968314;28;20311;-76
2021/09/23 10:43:01;;;;;;;;;;;;;;;14.42;35.39;95814.94;4967198;28;19910;-76
2021/09/23 10:45:27;;;;;;;;;;;;;;;14.52;35.82;95813.75;4968457;28;20013;-76
2021/09/23 10:47:54;;;;;;;;;;;;;;;14.48;36.36;95812.50;4961781;28;20058;-76
2021/09/23 10:50:22;;;;;;;;;;;;;;;14.46;35.97;95808.16;4969762;28;20255;-76
2021/09/23 10:52:47;;;;;;;;;;;;;;;14.75;35.92;95810.78;4968635;28;19914;-77
2021/09/23 10:55:14;;;;;;;;;;;;;;;15.30;35.64;95814.47;4950120;28;19918;-77
2021/09/23 10:57:39;;;;;;;;;;;;;;;15.13;35.59;95816.69;4963855;28;19917;-76
2021/09/23 11:00:05;;;;;;;;;;;;;;;15.25;37.36;95812.38;4966174;28;19922;-77
2021/09/23 11:02:31;;;;;;;;;;;;;;;15.07;35.63;95802.25;4967922;28;19918;-77
2021/09/23 11:04:58;;;;;;;;;;;;;;;15.42;35.07;95799.44;4977267;28;19922;-77
2021/09/23 11:07:24;;;;;;;;;;;;;;;14.96;36.14;95817.88;4980066;28;19964;-77
2021/09/23 11:10:03;;;;;;;;;;;;;;;15.52;35.82;95817.81;4968153;28;19957;-76
2021/09/23 11:12:28;;;;;;;;;;;;;;;15.60;34.94;95804.22;4966431;28;20443;-74
2021/09/23 11:14:55;;;;;;;;;;;;;;;16.24;34.92;95798.38;4960100;28;20059;-74
2021/09/23 11:17:21;;;;;;;;;;;;;;;16.16;34.29;95776.28;4967092;28;19913;-74
2021/09/23 11:19:46;;;;;;;;;;;;;;;15.96;34.62;95766.41;4945472;28;19961;-74
2021/09/23 11:22:13;;;;;;;;;;;;;;;16.60;33.92;95771.22;4967029;28;20326;-74
2021/09/23 11:24:38;;;;;;;;;;;;;;;16.55;34.55;95771.06;4968883;28;19928;-74
2021/09/23 11:27:07;;;;;;;;;;;;;;;17.02;33.57;95787.78;4985696;28;20415;-75
2021/09/23 11:29:33;;;;;;;;;;;;;;;16.30;34.45;95759.13;4986277;28;20407;-73
2021/09/23 11:31:58;;;;;;;;;;;;;;;16.96;33.39;95766.31;4962660;28;19967;-73
2021/09/23 11:34:29;;;;;;;;;;;;;;;16.56;36.15;95764.63;4986640;28;19917;-73
2021/09/23 11:36:55;;;;;;;;;;;;;;;16.15;35.13;95764.75;4987066;28;19914;-73
2021/09/23 11:39:20;;;;;;;;;;;;;;;15.57;35.87;95771.63;4962281;28;20458;-73
2021/09/23 11:42:04;;;;;;;;;;;;;;;16.14;34.68;95757.69;4968308;28;19914;-73
2021/09/23 11:44:29;;;;;;;;;;;;;;;15.44;36.41;95773.19;4980688;28;19918;-73
2021/09/23 11:46:57;;;;;;;;;;;;;;;16.02;35.25;95773.66;4986912;28;19963;-73
2021/09/23 11:49:23;;;;;;;;;;;;;;;16.35;34.59;95774.63;4986408;28;19917;-73
2021/09/23 11:51:48;;;;;;;;;;;;;;;16.57;34.82;95759.06;4987136;28;19917;-73
2021/09/23 11:54:20;;;;;;;;;;;;;;;17.03;33.87;95759.84;4986253;28;19910;-73
2021/09/23 11:56:45;;;;;;;;;;;;;;;16.89;34.74;95755.56;4985799;28;19921;-72
2021/09/23 11:59:17;;;;;;;;;;;;;;;17.20;33.74;95759.34;4986939;28;19918;-72
2021/09/23 12:01:42;;;;;;;;;;;;;;;17.50;32.86;95761.44;4987087;28;19913;-74
2021/09/23 12:04:12;;;;;;;;;;;;;;;17.92;32.90;95762.78;5001741;28;19940;-74
2021/09/23 12:06:37;;;;;;;;;;;;;;;18.01;33.32;95747.97;4988343;28;19956;-73
2021/09/23 12:09:09;;;;;;;;;;;;;;;18.72;32.59;95741.38;4989171;28;19953;-73
2021/09/23 12:11:35;;;;;;;;;;;;;;;18.41;32.33;95743.19;4990692;28;20472;-73
2021/09/23 12:14:00;;;;;;;;;;;;;;;18.90;30.96;95747.81;4989341;28;19994;-73
2021/09/23 12:16:30;;;;;;;;;;;;;;;19.23;29.47;95741.09;4989242;28;19995;-73
2021/09/23 12:18:56;;;;;;;;;;;;;;;18.71;29.60;95726.28;5005701;28;20016;-73
2021/09/23 12:21:22;;;;;;;;;;;;;;;18.49;31.79;95734.00;4991153;28;19989;-73
2021/09/23 12:23:48;;;;;;;;;;;;;;;19.05;30.51;95742.00;4990592;28;20126;-73
2021/09/23 12:26:20;;;;;;;;;;;;;;;18.93;30.60;95731.16;4989760;28;19937;-73
2021/09/23 12:28:58;;;;;;;;;;;;;;;19.66;29.92;95724.88;4990886;28;19979;-73
2021/09/23 12:31:33;;;;;;;;;;;;;;;19.40;29.79;95719.69;4985603;28;19924;-73
2021/09/23 12:34:21;;;;;;;;;;;;;;;19.03;31.07;95720.63;4984108;28;19932;-73
2021/09/23 12:36:57;;;;;;;;;;;;;;;17.89;31.62;95722.81;4992352;28;20231;-73
2021/09/23 12:39:23;;;;;;;;;;;;;;;18.27;32.00;95715.56;4990276;28;19921;-73
2021/09/23 12:41:51;;;;;;;;;;;;;;;19.37;29.96;95720.16;4990809;28;19941;-73
2021/09/23 12:44:23;;;;;;;;;;;;;;;17.95;32.26;95719.22;4988590;28;19980;-73
2021/09/23 12:47:00;;;;;;;;;;;;;;;19.89;29.50;95715.16;4990330;28;19918;-73